Kap.kostas — SY3522 — position and weather

sailwx.info

Track history (hours):
 
Tides and Currents Weather Stations Pressure Air Temp Water Temp Dewpoint Dewpoint Depression Visibility Wind Speed Wind Dir Waves Ship Positions

Kap.kostas

Last reported at 2017-Nov-14 04:28 UTC. Time now 2017-Dec-15 12:20 UTC.
Position N 40°11' E 024°23'.
Warning: this ship's position is 31 days out of date.

Length 31 m; draft 3.5 m.

Type: Fishing. MMSI: 240020000.

Date/timePositionNaut miles runAvg speedWind from/ knotsBaromVisibWave heightAir tempDewpointWater temp
2017-Nov-14 04:28N 40°11' E 024°23'4 9.2
2017-Nov-14 04:00N 40°14' E 024°20'5 9.5
2017-Nov-14 03:30N 40°18' E 024°16'  
2017-Nov-08 14:58N 40°50' E 024°21'2 3.6
2017-Nov-08 14:30N 40°51' E 024°19'0 0.0
2017-Nov-08 14:00N 40°51' E 024°19'0 0.0
2017-Nov-08 13:30N 40°51' E 024°19'0 0.0
2017-Nov-08 12:45N 40°51' E 024°19'0 0.0
2017-Nov-08 12:30N 40°51' E 024°19'0 0.0
2017-Nov-08 12:00N 40°51' E 024°19'0 0.0
2017-Nov-08 11:29N 40°51' E 024°19'0 0.0
2017-Nov-08 11:00N 40°51' E 024°19'0 0.0
2017-Nov-08 10:30N 40°51' E 024°19'0 0.0
2017-Nov-08 10:00N 40°51' E 024°19'0 0.0
2017-Nov-08 09:30N 40°51' E 024°19'0 0.0
2017-Nov-08 09:00N 40°51' E 024°19'0 0.0
2017-Nov-08 08:30N 40°51' E 024°19'0 0.0
2017-Nov-08 08:00N 40°51' E 024°19'0 0.0
2017-Nov-08 07:30N 40°51' E 024°19'0 0.0
2017-Nov-08 07:00N 40°51' E 024°19'0 0.0
2017-Nov-08 06:30N 40°51' E 024°19'0 0.0
2017-Nov-08 06:00N 40°51' E 024°19'0 0.0
2017-Nov-08 05:30N 40°51' E 024°19'0 0.0
2017-Nov-08 05:00N 40°51' E 024°19'0 0.0
2017-Nov-08 04:30N 40°51' E 024°19'0 0.0
2017-Nov-08 04:00N 40°51' E 024°19'0 0.0
2017-Nov-08 03:30N 40°51' E 024°19'0 0.0
2017-Nov-08 03:00N 40°51' E 024°19'0 0.0
2017-Nov-08 02:30N 40°51' E 024°19'0 0.0
2017-Nov-08 02:00N 40°51' E 024°19'0 0.0
2017-Nov-08 01:30N 40°51' E 024°19'0 0.0
2017-Nov-08 01:00N 40°51' E 024°19'0 0.0
2017-Nov-08 00:30N 40°51' E 024°19'0 0.0
2017-Nov-08 00:00N 40°51' E 024°19'0 0.0
2017-Nov-07 23:30N 40°51' E 024°19'0 0.0
2017-Nov-07 23:00N 40°51' E 024°19'0 0.0
2017-Nov-07 22:30N 40°51' E 024°19'0 0.0
2017-Nov-07 22:00N 40°51' E 024°19'0 0.0
2017-Nov-07 21:30N 40°51' E 024°19'0 0.0
2017-Nov-07 21:00N 40°51' E 024°19'2 0.2
2017-Nov-07 13:51N 40°50' E 024°21'2 3.3
2017-Nov-07 13:20N 40°51' E 024°19'  
Track history (hours):
 
Tides and Currents Weather Stations Pressure Air Temp Water Temp Dewpoint Dewpoint Depression Visibility Wind Speed Wind Dir Waves Ship Positions

Kap.kostas

Last reported at 2017-Nov-14 04:28 UTC. Time now 2017-Dec-15 12:20 UTC.
Position N 40°11' E 024°23'.
Warning: this ship's position is 31 days out of date.

Length 31 m; draft 3.5 m.

Type: Fishing. MMSI: 240020000.

Date/timePositionNaut miles runAvg speedWind from/ knotsBaromVisibWave heightAir tempDewpointWater temp
2017-Nov-14 04:28N 40°11' E 024°23'4 9.2
2017-Nov-14 04:00N 40°14' E 024°20'5 9.5
2017-Nov-14 03:30N 40°18' E 024°16'  
2017-Nov-08 14:58N 40°50' E 024°21'2 3.6
2017-Nov-08 14:30N 40°51' E 024°19'0 0.0
2017-Nov-08 14:00N 40°51' E 024°19'0 0.0
2017-Nov-08 13:30N 40°51' E 024°19'0 0.0
2017-Nov-08 12:45N 40°51' E 024°19'0 0.0
2017-Nov-08 12:30N 40°51' E 024°19'0 0.0
2017-Nov-08 12:00N 40°51' E 024°19'0 0.0
2017-Nov-08 11:29N 40°51' E 024°19'0 0.0
2017-Nov-08 11:00N 40°51' E 024°19'0 0.0
2017-Nov-08 10:30N 40°51' E 024°19'0 0.0
2017-Nov-08 10:00N 40°51' E 024°19'0 0.0
2017-Nov-08 09:30N 40°51' E 024°19'0 0.0
2017-Nov-08 09:00N 40°51' E 024°19'0 0.0
2017-Nov-08 08:30N 40°51' E 024°19'0 0.0
2017-Nov-08 08:00N 40°51' E 024°19'0 0.0
2017-Nov-08 07:30N 40°51' E 024°19'0 0.0
2017-Nov-08 07:00N 40°51' E 024°19'0 0.0
2017-Nov-08 06:30N 40°51' E 024°19'0 0.0
2017-Nov-08 06:00N 40°51' E 024°19'0 0.0
2017-Nov-08 05:30N 40°51' E 024°19'0 0.0
2017-Nov-08 05:00N 40°51' E 024°19'0 0.0
2017-Nov-08 04:30N 40°51' E 024°19'0 0.0
2017-Nov-08 04:00N 40°51' E 024°19'0 0.0
2017-Nov-08 03:30N 40°51' E 024°19'0 0.0
2017-Nov-08 03:00N 40°51' E 024°19'0 0.0
2017-Nov-08 02:30N 40°51' E 024°19'0 0.0
2017-Nov-08 02:00N 40°51' E 024°19'0 0.0
2017-Nov-08 01:30N 40°51' E 024°19'0 0.0
2017-Nov-08 01:00N 40°51' E 024°19'0 0.0
2017-Nov-08 00:30N 40°51' E 024°19'0 0.0
2017-Nov-08 00:00N 40°51' E 024°19'0 0.0
2017-Nov-07 23:30N 40°51' E 024°19'0 0.0
2017-Nov-07 23:00N 40°51' E 024°19'0 0.0
2017-Nov-07 22:30N 40°51' E 024°19'0 0.0
2017-Nov-07 22:00N 40°51' E 024°19'0 0.0
2017-Nov-07 21:30N 40°51' E 024°19'0 0.0
2017-Nov-07 21:00N 40°51' E 024°19'2 0.2
2017-Nov-07 13:51N 40°50' E 024°21'2 3.3
2017-Nov-07 13:20N 40°51' E 024°19'  

Dump ship's entire track history